Time;durP1;ratioP1;P1;durP2;ratioP2;P2;SDS_P1;SDS_P2;PMS_P1;PMS_P2;Temp;Humidity;BMP_temperature;BMP_pressure;BME280_temperature;BME280_humidity;BME280_pressure;Samples;Min_cycle;Max_cycle;Signal;HPM_P1;HPM_P2
2024/03/09 00:00:19;;;;;;;19.83;13.70;;;9.70;99.90;;;;;;5020073;28;20408;-68
2024/03/09 00:02:48;;;;;;;22.37;13.80;;;9.60;99.90;;;;;;5019973;28;20523;-69
2024/03/09 00:05:15;;;;;;;14.63;12.20;;;9.70;99.90;;;;;;5014906;28;20533;-68
2024/03/09 00:07:41;;;;;;;17.73;12.87;;;9.70;99.90;;;;;;5024169;28;20463;-68
2024/03/09 00:10:08;;;;;;;16.87;13.83;;;9.70;99.90;;;;;;5020654;28;20439;-68
2024/03/09 00:12:34;;;;;;;19.37;13.90;;;9.70;99.90;;;;;;5021585;28;20998;-68
2024/03/09 00:15:01;;;;;;;17.90;13.13;;;9.70;99.90;;;;;;5032066;28;20443;-67
2024/03/09 00:17:28;;;;;;;19.33;13.70;;;9.70;99.90;;;;;;5021075;28;20477;-68
2024/03/09 00:19:54;;;;;;;18.00;14.20;;;9.70;99.90;;;;;;5023699;28;20431;-68
2024/03/09 00:22:20;;;;;;;20.87;14.97;;;9.70;99.90;;;;;;5020717;28;20423;-68
2024/03/09 00:24:47;;;;;;;18.97;12.73;;;9.60;99.90;;;;;;5020882;28;20286;-68
2024/03/09 00:27:16;;;;;;;19.30;12.53;;;9.70;99.90;;;;;;5024740;28;20505;-68
2024/03/09 00:29:42;;;;;;;15.90;11.90;;;9.70;99.90;;;;;;5020266;28;20923;-68
2024/03/09 00:32:08;;;;;;;19.93;13.93;;;9.70;99.90;;;;;;5021279;28;20481;-68
2024/03/09 00:34:34;;;;;;;18.60;13.83;;;9.70;99.90;;;;;;5017827;28;20439;-68
2024/03/09 00:36:59;;;;;;;17.90;13.13;;;9.70;99.90;;;;;;5025388;28;20275;-68
2024/03/09 00:39:25;;;;;;;19.83;14.20;;;9.70;99.90;;;;;;5018208;28;20184;-68
2024/03/09 00:41:50;;;;;;;19.40;14.23;;;9.70;99.90;;;;;;5020690;28;20177;-68
2024/03/09 00:44:16;;;;;;;19.13;13.10;;;9.70;99.90;;;;;;5020810;28;20206;-68
2024/03/09 00:46:42;;;;;;;18.20;13.17;;;9.70;99.90;;;;;;5019649;28;20234;-68
2024/03/09 00:49:09;;;;;;;17.73;13.17;;;9.70;99.90;;;;;;5015592;28;20937;-68
2024/03/09 00:51:35;;;;;;;19.30;13.50;;;9.60;99.90;;;;;;5019901;28;20196;-68
2024/03/09 00:54:01;;;;;;;20.10;13.37;;;9.70;99.90;;;;;;5017842;28;20485;-68
2024/03/09 00:56:29;;;;;;;16.37;13.00;;;9.70;99.90;;;;;;5020759;28;20173;-68
2024/03/09 00:58:56;;;;;;;18.10;12.93;;;9.70;99.90;;;;;;5018283;28;20859;-69
2024/03/09 01:01:23;;;;;;;19.27;14.57;;;9.70;99.90;;;;;;5020191;28;20608;-70
2024/03/09 01:03:51;;;;;;;20.53;13.83;;;9.70;99.90;;;;;;5020341;28;20804;-68
2024/03/09 01:06:20;;;;;;;17.00;13.20;;;9.60;99.90;;;;;;5017330;28;20845;-68
2024/03/09 01:08:49;;;;;;;20.40;13.50;;;9.60;99.90;;;;;;5021647;28;21119;-68
2024/03/09 01:11:17;;;;;;;19.00;13.77;;;9.60;99.90;;;;;;5020049;28;20913;-68
2024/03/09 01:13:44;;;;;;;22.23;14.30;;;9.60;99.90;;;;;;5017411;28;20412;-68
2024/03/09 01:16:09;;;;;;;17.73;13.50;;;9.60;99.90;;;;;;5016903;28;20428;-68
2024/03/09 01:18:36;;;;;;;17.67;13.60;;;9.60;99.90;;;;;;5020300;28;20419;-68
2024/03/09 01:21:01;;;;;;;18.40;14.53;;;9.60;99.90;;;;;;5017802;28;20571;-68
2024/03/09 01:23:30;;;;;;;21.90;14.17;;;9.60;99.90;;;;;;5022094;28;20481;-68
2024/03/09 01:25:56;;;;;;;19.00;13.30;;;9.60;99.90;;;;;;5015282;28;20634;-68
2024/03/09 01:28:22;;;;;;;20.30;14.67;;;9.60;99.90;;;;;;5020733;28;20466;-68
2024/03/09 01:30:47;;;;;;;17.37;12.80;;;9.60;99.90;;;;;;5017004;28;20475;-68
2024/03/09 01:33:14;;;;;;;21.33;14.40;;;9.70;99.90;;;;;;5024527;28;20172;-68
2024/03/09 01:35:39;;;;;;;20.33;13.87;;;9.70;99.90;;;;;;5023995;28;20219;-67
2024/03/09 01:38:05;;;;;;;19.50;14.93;;;9.70;99.90;;;;;;5027600;28;20910;-67
2024/03/09 01:40:31;;;;;;;20.53;13.83;;;9.70;99.90;;;;;;5020144;28;20295;-67
2024/03/09 01:42:57;;;;;;;21.80;14.60;;;9.70;99.90;;;;;;5021365;28;20189;-68
2024/03/09 01:45:23;;;;;;;19.30;13.63;;;9.70;99.90;;;;;;5023484;28;20525;-68
2024/03/09 01:47:51;;;;;;;20.87;15.00;;;9.70;99.90;;;;;;5021375;28;20279;-68
2024/03/09 01:50:19;;;;;;;18.87;14.07;;;9.70;99.90;;;;;;5020036;28;20423;-68
2024/03/09 01:52:50;;;;;;;16.33;13.00;;;9.70;99.90;;;;;;5023066;28;20464;-68
2024/03/09 01:55:18;;;;;;;18.43;12.80;;;9.70;99.90;;;;;;5019622;28;20451;-68
2024/03/09 01:57:46;;;;;;;23.77;14.67;;;9.70;99.90;;;;;;5020226;28;20437;-68
2024/03/09 02:00:14;;;;;;;20.70;13.10;;;9.70;99.90;;;;;;5021657;28;20930;-68
2024/03/09 02:02:40;;;;;;;15.97;13.00;;;9.70;99.90;;;;;;5023108;28;20438;-68
2024/03/09 02:05:10;;;;;;;18.07;13.83;;;9.70;99.90;;;;;;5014679;28;20997;-68
2024/03/09 02:07:37;;;;;;;18.07;13.33;;;9.70;99.90;;;;;;5022162;28;20208;-68
2024/03/09 02:10:03;;;;;;;17.67;14.20;;;9.70;99.90;;;;;;5016566;28;20496;-68
2024/03/09 02:12:29;;;;;;;18.50;14.10;;;9.70;99.90;;;;;;5022327;28;21395;-68
2024/03/09 02:14:54;;;;;;;17.63;13.00;;;9.60;99.90;;;;;;5020070;28;20457;-68
2024/03/09 02:17:22;;;;;;;17.87;15.20;;;9.60;99.90;;;;;;5022182;28;21039;-68
2024/03/09 02:19:48;;;;;;;16.63;12.67;;;9.60;99.90;;;;;;5022619;28;20180;-68
2024/03/09 02:22:16;;;;;;;17.40;13.73;;;9.60;99.90;;;;;;5018707;28;20435;-68
2024/03/09 02:24:50;;;;;;;19.90;14.80;;;9.60;99.90;;;;;;5016857;28;20966;-68
2024/03/09 02:27:18;;;;;;;21.43;13.50;;;9.60;99.90;;;;;;5020696;28;20792;-68
2024/03/09 02:29:45;;;;;;;17.33;12.47;;;9.60;99.90;;;;;;5022526;28;20464;-68
2024/03/09 02:32:11;;;;;;;16.90;12.37;;;9.60;99.90;;;;;;5019881;28;20450;-68
2024/03/09 02:34:37;;;;;;;24.33;14.40;;;9.60;99.90;;;;;;5025698;28;20435;-68
2024/03/09 02:37:03;;;;;;;20.30;13.83;;;9.60;99.90;;;;;;5028181;28;20826;-68
2024/03/09 02:39:28;;;;;;;20.53;14.40;;;9.50;99.90;;;;;;5029470;28;20181;-68
2024/03/09 02:41:58;;;;;;;22.80;15.13;;;9.50;99.90;;;;;;5020219;28;20435;-68
2024/03/09 02:44:24;;;;;;;20.63;13.90;;;9.50;99.90;;;;;;5022439;28;20200;-68
2024/03/09 02:46:50;;;;;;;23.07;14.53;;;9.50;99.90;;;;;;5020492;28;20439;-68
2024/03/09 02:49:16;;;;;;;21.30;14.50;;;9.50;99.90;;;;;;5017616;28;20510;-68
2024/03/09 02:51:41;;;;;;;21.23;14.50;;;9.50;99.90;;;;;;5021791;28;20180;-68
2024/03/09 02:54:07;;;;;;;17.70;13.30;;;9.40;99.90;;;;;;5021945;28;20204;-68
2024/03/09 02:56:33;;;;;;;18.83;13.57;;;9.40;99.90;;;;;;5020145;28;20216;-68
2024/03/09 02:59:01;;;;;;;21.50;15.17;;;9.40;99.90;;;;;;5021461;28;20188;-68
2024/03/09 03:01:27;;;;;;;18.13;13.70;;;9.40;99.90;;;;;;5022260;28;20185;-68
2024/03/09 03:04:00;;;;;;;;;;;;;;;;;;;;;
2024/03/09 03:06:27;;;;;;;20.73;13.97;;;9.40;99.90;;;;;;5021708;28;20258;-68
2024/03/09 03:08:55;;;;;;;20.20;14.53;;;9.40;99.90;;;;;;5022743;28;20458;-68
2024/03/09 03:11:21;;;;;;;18.97;14.00;;;9.40;99.90;;;;;;5015610;28;20465;-68
2024/03/09 03:13:49;;;;;;;17.13;13.17;;;9.40;99.90;;;;;;5023081;28;20439;-68
2024/03/09 03:16:19;;;;;;;17.93;13.70;;;9.40;99.90;;;;;;5023102;28;20435;-67
2024/03/09 03:18:50;;;;;;;19.07;14.33;;;9.40;99.90;;;;;;5018241;28;20464;-68
2024/03/09 03:21:16;;;;;;;21.00;13.47;;;9.40;99.90;;;;;;5022466;28;20431;-68
2024/03/09 03:23:42;;;;;;;18.60;14.07;;;9.40;99.90;;;;;;5021240;28;20407;-68
2024/03/09 03:26:12;;;;;;;21.73;13.57;;;9.30;99.90;;;;;;5019388;28;20188;-68
2024/03/09 03:28:39;;;;;;;21.63;13.73;;;9.30;99.90;;;;;;5028809;28;20457;-68
2024/03/09 03:31:05;;;;;;;18.93;13.10;;;9.30;99.90;;;;;;5021502;28;20420;-68
2024/03/09 03:33:32;;;;;;;17.30;12.60;;;9.30;99.90;;;;;;5022245;28;20416;-68
2024/03/09 03:36:01;;;;;;;20.13;12.97;;;9.30;99.90;;;;;;5019737;28;20479;-68
2024/03/09 03:38:27;;;;;;;16.93;13.40;;;9.30;99.90;;;;;;5022195;28;20407;-68
2024/03/09 03:40:52;;;;;;;19.53;13.93;;;9.30;99.90;;;;;;5021883;28;20925;-68
2024/03/09 03:43:18;;;;;;;18.03;12.70;;;9.30;99.90;;;;;;5024441;28;20184;-68
2024/03/09 03:45:43;;;;;;;15.37;12.20;;;9.30;99.90;;;;;;5015908;28;20232;-68
2024/03/09 03:48:15;;;;;;;19.63;12.87;;;9.30;99.90;;;;;;5022112;28;20212;-67
2024/03/09 03:50:41;;;;;;;17.80;12.77;;;9.30;99.90;;;;;;5020542;28;20239;-68
2024/03/09 03:53:07;;;;;;;19.10;12.60;;;9.20;99.90;;;;;;5021729;28;20446;-68
2024/03/09 03:55:33;;;;;;;17.70;13.50;;;9.20;99.90;;;;;;5024172;28;20936;-68
2024/03/09 03:57:58;;;;;;;19.37;13.20;;;9.10;99.90;;;;;;5016141;28;20683;-68
2024/03/09 04:00:24;;;;;;;17.00;12.20;;;9.10;99.90;;;;;;5020620;28;20182;-68
2024/03/09 04:02:50;;;;;;;17.10;12.10;;;9.10;99.90;;;;;;5023499;28;20215;-68
2024/03/09 04:05:16;;;;;;;21.80;12.70;;;9.10;99.90;;;;;;5017556;28;20766;-67
2024/03/09 04:07:42;;;;;;;18.20;12.00;;;9.10;99.90;;;;;;5014919;28;20463;-67
2024/03/09 04:10:13;;;;;;;18.13;13.17;;;9.20;99.90;;;;;;5019326;28;20952;-68
2024/03/09 04:12:40;;;;;;;19.13;13.43;;;9.10;99.90;;;;;;5018456;28;20620;-68
2024/03/09 04:15:08;;;;;;;16.37;12.33;;;9.10;99.90;;;;;;5017749;28;20454;-68
2024/03/09 04:17:34;;;;;;;15.90;11.53;;;9.10;99.90;;;;;;5012117;28;20973;-68
2024/03/09 04:19:59;;;;;;;15.47;11.47;;;8.90;99.90;;;;;;5017509;28;20463;-68
2024/03/09 04:22:25;;;;;;;17.80;12.60;;;8.80;99.90;;;;;;5022222;28;20192;-69
2024/03/09 04:24:51;;;;;;;15.47;11.67;;;8.80;99.90;;;;;;5024865;28;20235;-68
2024/03/09 04:27:18;;;;;;;15.57;11.00;;;8.80;99.90;;;;;;5021745;28;21164;-68
2024/03/09 04:29:47;;;;;;;19.70;12.53;;;8.70;99.90;;;;;;5019807;28;20698;-68
2024/03/09 04:32:14;;;;;;;15.67;11.23;;;8.70;99.90;;;;;;5020125;28;20834;-68
2024/03/09 04:34:40;;;;;;;16.70;11.90;;;8.70;99.90;;;;;;5019085;28;20459;-68
2024/03/09 04:37:07;;;;;;;14.57;11.00;;;8.70;99.90;;;;;;5021346;28;20451;-68
2024/03/09 04:39:43;;;;;;;19.33;11.37;;;8.70;99.90;;;;;;5020453;28;20408;-68
2024/03/09 04:42:09;;;;;;;18.70;12.03;;;8.70;99.90;;;;;;5024745;28;20446;-68
2024/03/09 04:44:36;;;;;;;15.70;12.03;;;8.70;99.90;;;;;;5021832;28;20467;-68
2024/03/09 04:47:03;;;;;;;19.73;11.97;;;8.70;99.90;;;;;;5024146;28;20465;-68
2024/03/09 04:49:29;;;;;;;15.63;12.10;;;8.70;99.90;;;;;;5017659;28;20467;-68
2024/03/09 04:51:56;;;;;;;15.30;10.40;;;8.70;99.90;;;;;;5023185;28;20979;-68
2024/03/09 04:54:22;;;;;;;17.90;12.10;;;8.70;99.90;;;;;;5024493;28;20208;-68
2024/03/09 04:56:49;;;;;;;16.97;12.10;;;8.70;99.90;;;;;;5029218;28;20928;-68
2024/03/09 04:59:16;;;;;;;19.13;11.57;;;8.60;99.90;;;;;;5020899;28;20643;-68
2024/03/09 05:01:45;;;;;;;17.03;12.07;;;8.60;99.90;;;;;;5017860;28;20450;-68
2024/03/09 05:04:11;;;;;;;15.10;11.50;;;8.60;99.90;;;;;;5018255;28;20459;-68
2024/03/09 05:06:39;;;;;;;18.00;11.83;;;8.60;99.90;;;;;;5022502;28;20429;-68
2024/03/09 05:09:06;;;;;;;16.80;12.87;;;8.60;99.90;;;;;;5013513;28;20539;-68
2024/03/09 05:11:32;;;;;;;18.17;12.50;;;8.60;99.90;;;;;;5026217;28;20866;-68
2024/03/09 05:13:58;;;;;;;16.83;12.07;;;8.50;99.90;;;;;;5018153;28;20571;-68
2024/03/09 05:16:23;;;;;;;17.80;12.40;;;8.50;99.90;;;;;;5022676;28;20279;-68
2024/03/09 05:18:51;;;;;;;17.97;12.80;;;8.50;99.90;;;;;;5021819;28;20271;-68
2024/03/09 05:21:17;;;;;;;16.97;12.27;;;8.50;99.90;;;;;;5024933;28;20212;-68
2024/03/09 05:23:42;;;;;;;15.20;10.87;;;8.50;99.90;;;;;;5017133;28;20455;-68
2024/03/09 05:26:10;;;;;;;14.40;11.87;;;8.50;99.90;;;;;;5014435;28;20181;-68
2024/03/09 05:28:37;;;;;;;16.50;12.27;;;8.40;99.90;;;;;;5015450;28;20648;-68
2024/03/09 05:31:04;;;;;;;16.43;12.53;;;8.40;99.90;;;;;;5012892;28;20440;-67
2024/03/09 05:33:30;;;;;;;18.77;12.60;;;8.40;99.90;;;;;;5019446;28;20431;-67
2024/03/09 05:35:56;;;;;;;16.30;11.80;;;8.40;99.90;;;;;;5020221;28;20423;-67
2024/03/09 05:38:21;;;;;;;16.10;12.03;;;8.40;99.90;;;;;;5025405;28;20184;-67
2024/03/09 05:40:47;;;;;;;17.90;12.57;;;8.40;99.90;;;;;;5024019;28;20657;-67
2024/03/09 05:43:13;;;;;;;15.90;11.67;;;8.40;99.90;;;;;;5019684;28;20170;-67
2024/03/09 05:45:39;;;;;;;15.33;12.17;;;8.40;99.90;;;;;;5022096;28;20203;-67
2024/03/09 05:48:07;;;;;;;18.73;12.73;;;8.40;99.90;;;;;;5011060;28;20505;-67
2024/03/09 05:50:35;;;;;;;20.83;13.57;;;8.40;99.90;;;;;;5020935;28;20578;-67
2024/03/09 05:53:01;;;;;;;18.17;12.10;;;8.40;99.90;;;;;;5019188;28;20506;-67
2024/03/09 05:55:28;;;;;;;15.60;11.60;;;8.30;99.90;;;;;;5023584;28;20469;-67
2024/03/09 05:57:54;;;;;;;15.50;11.77;;;8.30;99.90;;;;;;5016387;28;20514;-67
2024/03/09 06:00:27;;;;;;;19.10;12.70;;;8.30;99.90;;;;;;5014403;28;20416;-67
2024/03/09 06:02:53;;;;;;;19.00;12.70;;;8.30;99.90;;;;;;5016753;28;20415;-67
2024/03/09 06:05:19;;;;;;;19.07;13.00;;;8.30;99.90;;;;;;5018789;28;20454;-67
2024/03/09 06:07:45;;;;;;;14.93;12.80;;;8.20;99.90;;;;;;5026248;28;20542;-67
2024/03/09 06:10:14;;;;;;;18.10;12.93;;;8.20;99.90;;;;;;5019268;28;20472;-67
2024/03/09 06:12:44;;;;;;;19.20;14.83;;;8.20;99.90;;;;;;5021957;28;20412;-67
2024/03/09 06:15:14;;;;;;;17.63;13.60;;;8.10;99.90;;;;;;5019641;28;20452;-67
2024/03/09 06:17:41;;;;;;;17.73;13.17;;;8.10;99.90;;;;;;5022655;28;20452;-67
2024/03/09 06:20:08;;;;;;;18.57;13.20;;;8.10;99.90;;;;;;5022237;28;20486;-67
2024/03/09 06:22:34;;;;;;;15.87;11.60;;;8.10;99.90;;;;;;5017821;28;20446;-67
2024/03/09 06:25:00;;;;;;;16.80;13.67;;;8.00;99.90;;;;;;5025198;28;20446;-67
2024/03/09 06:27:27;;;;;;;17.47;11.93;;;8.00;99.90;;;;;;5019006;28;20419;-68
2024/03/09 06:29:56;;;;;;;18.67;12.47;;;8.00;99.90;;;;;;5024029;28;20258;-68
2024/03/09 06:32:25;;;;;;;19.50;13.97;;;8.00;99.90;;;;;;5020803;28;20915;-68
2024/03/09 06:34:52;;;;;;;17.40;12.90;;;8.00;99.90;;;;;;5018215;28;20438;-68
2024/03/09 06:37:18;;;;;;;17.97;14.10;;;7.90;99.90;;;;;;5025216;28;20399;-68
2024/03/09 06:39:44;;;;;;;17.57;13.17;;;7.90;99.90;;;;;;5019763;28;20517;-68
2024/03/09 06:42:09;;;;;;;19.10;13.33;;;7.90;99.90;;;;;;5020249;28;20185;-67
2024/03/09 06:44:38;;;;;;;16.50;12.63;;;7.90;99.90;;;;;;5021922;28;20241;-68
2024/03/09 06:47:06;;;;;;;17.67;12.77;;;7.90;99.90;;;;;;5027353;28;20191;-66
2024/03/09 06:49:35;;;;;;;18.70;13.37;;;7.90;99.90;;;;;;5018257;28;20460;-66
2024/03/09 06:52:04;;;;;;;20.70;13.53;;;7.90;99.90;;;;;;5018316;28;20423;-67
2024/03/09 06:54:31;;;;;;;20.00;14.20;;;7.90;99.90;;;;;;5020328;28;20432;-67
2024/03/09 06:56:57;;;;;;;20.43;13.13;;;7.90;99.90;;;;;;5015392;28;20431;-67
2024/03/09 06:59:23;;;;;;;21.33;13.50;;;7.90;99.90;;;;;;5023631;28;20462;-67
2024/03/09 07:01:56;;;;;;;19.60;13.87;;;7.80;99.90;;;;;;5019067;28;20422;-67
2024/03/09 07:04:22;;;;;;;18.83;14.07;;;7.90;99.90;;;;;;5012815;28;20252;-66
2024/03/09 07:06:48;;;;;;;17.30;13.17;;;7.90;99.90;;;;;;5020966;28;20422;-67
2024/03/09 07:09:14;;;;;;;21.57;13.93;;;7.90;99.90;;;;;;5020195;28;20518;-66
2024/03/09 07:11:39;;;;;;;19.63;14.53;;;7.90;99.90;;;;;;5019320;28;20543;-66
2024/03/09 07:14:05;;;;;;;25.40;14.93;;;7.90;99.90;;;;;;5019991;28;20196;-67
2024/03/09 07:16:32;;;;;;;20.00;13.37;;;7.80;99.90;;;;;;5018633;28;20442;-67
2024/03/09 07:18:57;;;;;;;18.27;14.13;;;7.80;99.90;;;;;;5017316;28;20272;-67
2024/03/09 07:21:23;;;;;;;17.50;13.63;;;7.90;99.90;;;;;;5021089;28;21101;-67
2024/03/09 07:23:50;;;;;;;16.67;13.13;;;7.90;99.90;;;;;;5021877;28;20193;-67
2024/03/09 07:26:16;;;;;;;20.83;13.67;;;7.90;99.90;;;;;;5022943;28;20204;-67
2024/03/09 07:28:43;;;;;;;20.50;13.83;;;7.90;99.90;;;;;;5017835;28;20892;-67
2024/03/09 07:31:09;;;;;;;21.20;12.93;;;8.00;99.90;;;;;;5017206;28;20205;-67
2024/03/09 07:33:35;;;;;;;22.40;14.43;;;8.00;99.90;;;;;;5019731;28;20412;-67
2024/03/09 07:36:01;;;;;;;21.70;14.10;;;8.00;99.90;;;;;;5020947;28;21135;-67
2024/03/09 07:38:29;;;;;;;20.80;14.50;;;8.00;99.90;;;;;;5023843;28;20180;-67
2024/03/09 07:40:54;;;;;;;18.67;13.67;;;8.00;99.90;;;;;;5019961;28;20498;-67
2024/03/09 07:43:20;;;;;;;21.50;14.63;;;8.10;99.90;;;;;;5019436;28;20527;-67
2024/03/09 07:45:46;;;;;;;23.80;15.33;;;8.10;99.90;;;;;;5018554;28;21052;-68
2024/03/09 07:48:16;;;;;;;18.70;14.00;;;8.20;99.90;;;;;;5016719;28;20208;-66
2024/03/09 07:50:43;;;;;;;20.60;13.30;;;8.20;99.90;;;;;;5018952;28;20207;-66
2024/03/09 07:53:08;;;;;;;20.13;13.93;;;8.20;99.90;;;;;;5018369;28;20435;-66
2024/03/09 07:55:34;;;;;;;19.13;14.10;;;8.20;99.90;;;;;;5018593;28;20432;-66
2024/03/09 07:58:00;;;;;;;22.00;14.60;;;8.20;99.90;;;;;;5020616;28;20218;-66
2024/03/09 08:00:33;;;;;;;22.60;14.77;;;8.30;99.90;;;;;;5013091;28;20239;-67
2024/03/09 08:03:00;;;;;;;20.77;14.20;;;8.30;99.90;;;;;;5021406;28;20195;-66
2024/03/09 08:05:26;;;;;;;20.57;13.20;;;8.30;99.90;;;;;;5022340;28;20455;-67
2024/03/09 08:07:52;;;;;;;18.17;13.30;;;8.40;99.90;;;;;;5015073;28;20455;-67
2024/03/09 08:10:27;;;;;;;22.87;14.40;;;8.40;99.90;;;;;;5016536;28;20479;-67
2024/03/09 08:12:53;;;;;;;20.60;14.43;;;8.40;99.90;;;;;;5017623;28;20430;-67
2024/03/09 08:15:19;;;;;;;18.60;13.77;;;8.40;99.90;;;;;;5019754;28;20855;-67
2024/03/09 08:17:48;;;;;;;21.97;14.70;;;8.50;99.90;;;;;;5017071;28;20442;-67
2024/03/09 08:20:15;;;;;;;18.07;13.00;;;8.50;99.90;;;;;;5021027;28;20415;-67
2024/03/09 08:22:45;;;;;;;19.83;13.30;;;8.60;99.90;;;;;;5015585;28;20420;-67
2024/03/09 08:25:15;;;;;;;20.43;14.27;;;8.60;99.90;;;;;;5019793;28;20448;-68
2024/03/09 08:27:44;;;;;;;18.93;14.17;;;8.70;99.90;;;;;;5020555;28;21193;-67
2024/03/09 08:30:14;;;;;;;19.13;14.87;;;8.70;99.90;;;;;;5019158;28;20416;-67
2024/03/09 08:32:45;;;;;;;20.53;14.30;;;8.80;99.90;;;;;;5019985;28;20435;-67
2024/03/09 08:35:15;;;;;;;16.57;13.03;;;8.80;99.90;;;;;;5016581;28;20436;-67
2024/03/09 08:37:41;;;;;;;21.90;14.10;;;8.90;99.90;;;;;;5021298;28;20419;-68
2024/03/09 08:40:11;;;;;;;18.60;12.73;;;8.90;99.90;;;;;;5017204;28;20443;-67
2024/03/09 08:42:38;;;;;;;22.10;14.40;;;9.00;99.90;;;;;;5020041;28;20411;-67
2024/03/09 08:45:09;;;;;;;17.90;13.40;;;9.10;99.90;;;;;;5018289;28;20450;-67
2024/03/09 08:47:38;;;;;;;19.13;13.37;;;9.10;99.90;;;;;;5018595;28;20470;-68
2024/03/09 08:50:05;;;;;;;17.20;11.97;;;9.20;99.90;;;;;;5020960;28;20493;-68
2024/03/09 08:52:34;;;;;;;20.50;13.87;;;9.20;99.90;;;;;;5018848;28;21128;-68
2024/03/09 08:54:59;;;;;;;19.00;14.20;;;9.30;99.90;;;;;;5018564;28;20460;-68
2024/03/09 08:57:27;;;;;;;19.67;14.07;;;9.40;99.90;;;;;;5017983;28;20774;-68
2024/03/09 08:59:59;;;;;;;17.33;12.60;;;9.40;99.90;;;;;;5012498;28;20622;-66
2024/03/09 09:02:26;;;;;;;20.97;12.97;;;9.50;99.90;;;;;;5017388;28;20793;-67
2024/03/09 09:04:52;;;;;;;19.33;13.80;;;9.60;99.90;;;;;;5018765;28;20446;-68
2024/03/09 09:07:18;;;;;;;17.67;13.90;;;9.60;99.90;;;;;;5014747;28;20514;-68
2024/03/09 09:09:44;;;;;;;16.77;13.00;;;9.70;99.90;;;;;;5019655;28;20510;-68
2024/03/09 09:12:10;;;;;;;15.97;12.83;;;9.80;99.90;;;;;;5019410;28;20180;-66
2024/03/09 09:14:37;;;;;;;18.03;12.20;;;9.90;99.90;;;;;;5017036;28;20193;-66
2024/03/09 09:17:06;;;;;;;17.80;12.80;;;10.00;99.90;;;;;;5014105;28;20494;-67
2024/03/09 09:19:33;;;;;;;18.00;13.47;;;10.00;99.90;;;;;;5018927;28;20427;-66
2024/03/09 09:21:59;;;;;;;18.50;12.03;;;10.10;99.90;;;;;;5013982;28;20423;-67
2024/03/09 09:24:25;;;;;;;14.63;11.10;;;10.20;99.90;;;;;;5017851;28;20489;-67
2024/03/09 09:26:50;;;;;;;17.67;13.03;;;10.20;99.90;;;;;;5018292;28;20819;-67
2024/03/09 09:29:16;;;;;;;17.47;13.53;;;10.30;99.90;;;;;;5018471;28;20811;-67
2024/03/09 09:31:42;;;;;;;17.20;12.50;;;10.30;99.90;;;;;;5016435;28;20180;-67
2024/03/09 09:34:10;;;;;;;20.30;14.17;;;10.40;99.90;;;;;;5015600;28;20439;-67
2024/03/09 09:36:37;;;;;;;15.33;11.53;;;10.50;99.90;;;;;;5019284;28;20861;-67
2024/03/09 09:39:02;;;;;;;16.00;12.50;;;10.60;99.90;;;;;;5020117;28;20522;-67
2024/03/09 09:41:29;;;;;;;20.27;13.97;;;10.70;99.90;;;;;;5018319;28;21037;-67
2024/03/09 09:43:58;;;;;;;18.80;12.43;;;10.80;99.90;;;;;;5019245;28;20224;-67
2024/03/09 09:46:29;;;;;;;17.33;13.03;;;10.80;99.90;;;;;;5023092;28;20785;-67
2024/03/09 09:48:55;;;;;;;18.20;13.73;;;10.90;99.90;;;;;;5021777;28;20467;-68
2024/03/09 09:51:25;;;;;;;15.40;12.40;;;11.00;99.90;;;;;;5014409;28;20486;-68
2024/03/09 09:53:54;;;;;;;17.43;12.77;;;11.10;99.90;;;;;;5024916;28;20783;-68
2024/03/09 09:56:22;;;;;;;16.20;12.30;;;11.10;99.90;;;;;;5015468;28;20432;-67
2024/03/09 09:58:48;;;;;;;23.03;11.77;;;11.20;99.90;;;;;;5025781;28;20474;-68
2024/03/09 10:01:20;;;;;;;16.07;12.40;;;11.30;99.90;;;;;;5021166;28;20439;-67
2024/03/09 10:03:47;;;;;;;14.73;11.77;;;11.40;99.90;;;;;;5018396;28;20434;-68
2024/03/09 10:06:23;;;;;;;17.27;14.23;;;11.50;99.90;;;;;;5022477;28;20430;-67
2024/03/09 10:08:49;;;;;;;19.63;13.03;;;11.60;99.90;;;;;;5020792;28;20458;-68
2024/03/09 10:11:16;;;;;;;21.23;14.10;;;11.60;99.90;;;;;;5020838;28;20439;-67
2024/03/09 10:13:43;;;;;;;20.33;15.23;;;11.80;99.90;;;;;;5019658;28;20446;-67
2024/03/09 10:16:12;;;;;;;17.30;13.93;;;11.90;99.90;;;;;;5026566;28;20438;-67
2024/03/09 10:18:41;;;;;;;19.37;14.57;;;11.90;99.90;;;;;;5023817;28;20951;-68
2024/03/09 10:21:09;;;;;;;22.10;15.27;;;12.00;99.90;;;;;;5030275;28;20994;-67
2024/03/09 10:23:34;;;;;;;20.33;13.90;;;12.10;99.90;;;;;;5021922;28;20910;-67
2024/03/09 10:26:09;;;;;;;21.40;14.60;;;12.10;99.90;;;;;;5023804;28;20418;-67
2024/03/09 10:28:47;;;;;;;19.93;15.43;;;12.20;99.90;;;;;;5022168;28;20287;-67
2024/03/09 10:31:16;;;;;;;31.10;21.30;;;12.30;99.90;;;;;;5016627;28;20432;-67
2024/03/09 10:33:43;;;;;;;22.30;17.93;;;12.40;99.90;;;;;;5019424;28;20404;-68
2024/03/09 10:36:12;;;;;;;18.27;14.47;;;12.50;99.90;;;;;;5019597;28;20972;-67
2024/03/09 10:38:40;;;;;;;18.63;14.27;;;12.60;99.90;;;;;;5019301;28;20456;-67
2024/03/09 10:41:06;;;;;;;26.87;17.33;;;12.60;99.90;;;;;;5024661;28;20411;-67
2024/03/09 10:43:34;;;;;;;21.43;15.37;;;12.70;99.90;;;;;;5019966;28;20420;-67
2024/03/09 10:46:04;;;;;;;21.40;15.10;;;12.80;99.90;;;;;;5022411;28;20407;-67
2024/03/09 10:48:33;;;;;;;19.57;15.10;;;12.90;99.90;;;;;;5014916;28;20988;-68
2024/03/09 10:51:25;;;;;;;20.60;15.10;;;13.00;99.90;;;;;;5019648;28;20429;-68
2024/03/09 10:54:26;;;;;;;20.30;15.47;;;13.10;99.90;;;;;;5015668;28;20452;-67
2024/03/09 10:56:53;;;;;;;22.53;14.83;;;13.10;99.90;;;;;;5026606;28;20496;-67
2024/03/09 10:59:22;;;;;;;18.00;14.60;;;13.20;99.90;;;;;;5022387;28;20419;-67
2024/03/09 11:01:52;;;;;;;18.73;13.60;;;13.30;99.90;;;;;;5016401;28;20447;-67
2024/03/09 11:04:19;;;;;;;19.87;15.10;;;13.30;99.90;;;;;;5011617;28;20451;-68
2024/03/09 11:06:47;;;;;;;19.80;14.90;;;13.40;99.90;;;;;;5029161;28;20502;-67
2024/03/09 11:09:15;;;;;;;22.00;15.27;;;13.50;99.90;;;;;;5026299;28;20853;-67
2024/03/09 11:11:44;;;;;;;17.87;13.43;;;13.60;99.90;;;;;;5034071;28;20425;-67
2024/03/09 11:14:16;;;;;;;19.70;14.93;;;13.60;99.90;;;;;;5025154;28;20431;-68
2024/03/09 11:16:42;;;;;;;18.70;15.13;;;13.70;99.90;;;;;;5020600;28;20439;-68
2024/03/09 11:19:14;;;;;;;17.43;12.93;;;13.80;99.90;;;;;;5020173;28;20422;-68
2024/03/09 11:21:39;;;;;;;16.63;13.10;;;13.80;99.90;;;;;;5022376;28;20905;-68
2024/03/09 11:24:11;;;;;;;20.37;14.80;;;13.90;99.90;;;;;;5023997;28;20509;-67
2024/03/09 11:26:53;;;;;;;18.40;14.00;;;14.00;99.90;;;;;;5021973;28;20174;-68
2024/03/09 11:29:30;;;;;;;17.20;13.23;;;14.20;99.90;;;;;;5022186;28;20459;-68
2024/03/09 11:32:01;;;;;;;18.63;13.73;;;14.30;99.90;;;;;;5020100;28;20435;-67
2024/03/09 11:34:27;;;;;;;17.30;13.23;;;14.40;99.90;;;;;;5019872;28;20480;-68
2024/03/09 11:36:57;;;;;;;18.97;13.67;;;14.40;99.90;;;;;;5019961;28;20657;-68
2024/03/09 11:39:31;;;;;;;15.43;13.00;;;14.60;99.90;;;;;;5022950;28;20447;-67
2024/03/09 11:42:01;;;;;;;19.70;13.80;;;14.70;99.90;;;;;;5015015;28;20805;-67
2024/03/09 11:44:36;;;;;;;18.50;14.00;;;14.80;99.90;;;;;;5026037;28;20436;-67
2024/03/09 11:47:06;;;;;;;15.20;12.13;;;14.90;99.90;;;;;;5018920;28;20867;-67
2024/03/09 11:49:33;;;;;;;17.97;13.20;;;15.10;99.90;;;;;;5020719;28;20782;-68
2024/03/09 11:52:00;;;;;;;16.27;12.13;;;15.30;99.90;;;;;;5027218;28;20530;-68
2024/03/09 11:54:27;;;;;;;15.80;12.43;;;15.40;99.90;;;;;;5014242;28;20448;-68
2024/03/09 11:56:53;;;;;;;15.63;12.17;;;15.60;99.90;;;;;;5019567;28;20471;-68
2024/03/09 11:59:19;;;;;;;16.83;11.47;;;15.80;99.90;;;;;;5016651;28;20424;-68
2024/03/09 12:01:49;;;;;;;17.10;12.30;;;16.00;99.90;;;;;;5019647;28;20971;-68
2024/03/09 12:04:17;;;;;;;19.83;13.73;;;16.20;99.90;;;;;;5019610;28;20801;-68
2024/03/09 12:06:43;;;;;;;17.20;12.53;;;16.50;99.90;;;;;;5012687;28;20431;-68
2024/03/09 12:09:12;;;;;;;18.30;12.07;;;16.80;99.90;;;;;;5021026;28;20528;-68
2024/03/09 12:11:38;;;;;;;16.50;12.60;;;17.60;99.90;;;;;;5020421;28;20243;-68
2024/03/09 12:14:06;;;;;;;12.70;10.90;;;19.80;99.90;;;;;;5019878;28;20835;-68
2024/03/09 12:16:33;;;;;;;13.93;11.53;;;22.60;99.50;;;;;;5019720;28;20949;-68
2024/03/09 12:19:00;;;;;;;11.80;8.77;;;24.90;93.10;;;;;;5016988;28;20472;-68
2024/03/09 12:21:27;;;;;;;13.60;12.30;;;26.50;81.80;;;;;;5016583;28;20469;-68
2024/03/09 12:23:58;;;;;;;12.90;11.60;;;27.90;73.10;;;;;;5014477;28;20693;-66
2024/03/09 12:26:25;;;;;;;13.63;12.17;;;28.80;64.30;;;;;;5025836;28;20415;-66
2024/03/09 12:28:53;;;;;;;13.30;11.97;;;29.60;59.20;;;;;;5012513;28;20488;-67
2024/03/09 12:31:18;;;;;;;13.17;11.90;;;30.00;56.30;;;;;;5018839;28;20467;-67
2024/03/09 12:33:44;;;;;;;11.63;10.53;;;30.20;53.20;;;;;;5009247;28;20448;-67
2024/03/09 12:36:11;;;;;;;11.40;10.23;;;30.40;51.20;;;;;;5019414;28;20262;-68